Terminal Aerodrome Forecast
Issued by NWS Spokane, WA

Home | Current Version | Previous Version | Text Only | Print | Product List | Glossary On
Versions: 1 2 3 4 5 6 7 8 9 10 11 12
000
FTUS46 KOTX 282338
TAFEAT
TAF
KEAT 282338Z 2900/2924 VRB04KT P6SM FEW100
     FM290100 31010KT P6SM SKC
     FM291900 29006KT P6SM SKC=

USA.gov is the U.S. government's official web portal to all federal, state and local government web resources and services.